Time;durP1;ratioP1;P1;durP2;ratioP2;P2;SDS_P1;SDS_P2;PMS_P1;PMS_P2;Temp;Humidity;BMP_temperature;BMP_pressure;BME280_temperature;BME280_humidity;BME280_pressure;Samples;Min_cycle;Max_cycle;Signal;HPM_P1;HPM_P2
2022/06/25 00:01:34;;;;;;;7.93;5.20;;;;;;;18.92;100.00;62826.38;5042627;28;20224;-75
2022/06/25 00:04:02;;;;;;;5.10;4.60;;;;;;;18.95;100.00;62829.06;5053802;28;20209;-76
2022/06/25 00:06:29;;;;;;;6.10;4.50;;;;;;;18.48;100.00;62779.41;5053898;28;20212;-74
2022/06/25 00:08:57;;;;;;;8.90;4.27;;;;;;;19.02;100.00;62839.75;5054572;28;20224;-74
2022/06/25 00:14:10;;;;;;;6.73;4.33;;;;;;;18.65;100.00;62794.63;5073841;28;20206;-75
2022/06/25 00:16:39;;;;;;;12.63;4.47;;;;;;;18.62;100.00;62791.38;5044209;28;20229;-75
2022/06/25 00:19:08;;;;;;;7.20;4.93;;;;;;;17.86;100.00;62709.34;5053799;28;20209;-75
2022/06/25 00:21:36;;;;;;;5.47;4.80;;;;;;;17.63;100.00;62685.06;5054065;28;20220;-73
2022/06/25 00:24:03;;;;;;;8.87;4.90;;;;;;;18.45;100.00;62775.63;5053434;28;20193;-74
2022/06/25 00:26:30;;;;;;;6.53;4.90;;;;;;;18.55;100.00;62786.41;5053786;28;20233;-74
2022/06/25 00:28:57;;;;;;;9.20;4.80;;;;;;;18.36;100.00;62771.59;5053269;28;20263;-74
2022/06/25 00:31:24;;;;;;;6.70;4.90;;;;;;;18.48;100.00;62781.44;5053301;28;20203;-73
2022/06/25 00:33:53;;;;;;;6.70;4.77;;;;;;;18.49;100.00;62777.38;5053474;28;20829;-74
2022/06/25 00:36:20;;;;;;;5.77;4.63;;;;;;;18.50;100.00;62781.00;5052557;28;20730;-74
2022/06/25 00:38:48;;;;;;;5.07;4.57;;;;;;;18.29;100.00;62760.91;5053226;28;20201;-74
2022/06/25 00:41:15;;;;;;;5.63;4.97;;;;;;;18.47;100.00;62775.22;5053275;28;20213;-74
2022/06/25 00:43:43;;;;;;;6.83;4.90;;;;;;;18.49;100.00;62777.38;5054007;28;20281;-73
2022/06/25 00:46:11;;;;;;;5.43;4.83;;;;;;;18.30;100.00;62761.97;5045194;28;20634;-73
2022/06/25 00:48:38;;;;;;;4.63;3.90;;;;;;;18.06;100.00;62728.34;5073295;28;20207;-73
2022/06/25 00:51:11;;;;;;;6.73;4.43;;;;;;;18.63;100.00;62795.06;5073038;28;20216;-74
2022/06/25 00:53:42;;;;;;;6.00;4.60;;;;;;;18.56;100.00;62790.06;5073514;28;20282;-74
2022/06/25 00:56:10;;;;;;;8.43;4.33;;;;;;;17.76;100.00;62701.69;5073267;28;20227;-74
2022/06/25 00:58:40;;;;;;;6.57;5.00;;;;;;;18.45;100.00;62778.22;5073642;28;20208;-74
2022/06/25 01:01:09;;;;;;;8.77;4.43;;;;;;;18.40;100.00;62767.63;5072224;28;20200;-74
2022/06/25 01:03:36;;;;;;;5.27;4.40;;;;;;;18.44;100.00;62769.38;5073059;28;20299;-74
2022/06/25 01:06:04;;;;;;;8.30;4.90;;;;;;;17.76;100.00;62701.13;5072462;28;20196;-74
2022/06/25 01:08:33;;;;;;;5.60;4.40;;;;;;;18.38;100.00;62765.47;5072768;28;20219;-74
2022/06/25 01:11:02;;;;;;;7.27;4.80;;;;;;;18.36;100.00;62765.88;5072571;28;20208;-74
2022/06/25 01:13:29;;;;;;;6.23;4.50;;;;;;;18.34;100.00;62761.16;5072612;28;20238;-74
2022/06/25 01:15:56;;;;;;;10.57;4.97;;;;;;;18.34;100.00;62761.69;5072429;28;20208;-74
2022/06/25 01:18:23;;;;;;;9.30;5.20;;;;;;;18.42;100.00;62769.78;5072096;28;20205;-74
2022/06/25 01:20:50;;;;;;;5.90;4.60;;;;;;;18.41;100.00;62771.28;5072373;28;20678;-74
2022/06/25 01:23:18;;;;;;;7.70;4.90;;;;;;;18.49;100.00;62782.53;5072049;28;20677;-74
2022/06/25 01:25:45;;;;;;;6.47;5.03;;;;;;;18.51;100.00;62782.09;5072363;28;20208;-74
2022/06/25 01:28:12;;;;;;;6.63;4.50;;;;;;;18.37;100.00;62764.38;5072312;28;20238;-76
2022/06/25 01:30:40;;;;;;;4.70;4.27;;;;;;;18.48;100.00;62778.84;5072201;28;20207;-75
2022/06/25 01:33:09;;;;;;;8.10;4.30;;;;;;;18.63;100.00;62792.47;5072329;28;20208;-74
2022/06/25 01:35:36;;;;;;;8.87;4.43;;;;;;;18.66;100.00;62792.59;5072410;28;20196;-74
2022/06/25 01:38:03;;;;;;;5.50;4.43;;;;;;;18.54;100.00;62785.34;5071893;28;20246;-73
2022/06/25 01:40:34;;;;;;;5.30;4.57;;;;;;;18.59;100.00;62790.75;5072178;28;20310;-73
2022/06/25 01:43:01;;;;;;;7.97;4.83;;;;;;;18.41;100.00;62771.81;5044934;28;20193;-75
2022/06/25 01:45:32;;;;;;;7.93;5.10;;;;;;;18.34;100.00;62766.31;5066070;28;20200;-74
2022/06/25 01:47:59;;;;;;;10.37;5.20;;;;;;;18.26;100.00;62755.63;5071311;28;20200;-74
2022/06/25 01:50:27;;;;;;;6.90;5.60;;;;;;;18.15;100.00;62745.81;5044916;28;20664;-74
2022/06/25 01:52:54;;;;;;;10.23;6.20;;;;;;;18.08;100.00;62733.09;5051389;28;20201;-74
2022/06/25 01:55:23;;;;;;;8.03;5.83;;;;;;;18.12;100.00;62737.94;5051665;28;20212;-76
2022/06/25 01:57:52;;;;;;;12.97;6.37;;;;;;;17.96;100.00;62720.13;5051463;28;20229;-73
2022/06/25 02:00:21;;;;;;;9.73;5.63;;;;;;;17.41;100.00;62661.88;5051895;28;20201;-73
2022/06/25 02:02:50;;;;;;;8.17;5.40;;;;;;;17.45;100.00;62671.31;5051749;28;20209;-74
2022/06/25 02:05:56;;;;;;;7.73;5.13;;;;;;;17.60;100.00;62687.53;5051403;28;20212;-74
2022/06/25 02:08:07;;;;;;;8.17;5.77;;;;;;;18.10;100.00;62735.25;5051530;28;20204;-74
2022/06/25 02:10:34;;;;;;;5.77;4.33;;;;;;;18.15;100.00;62740.66;5051830;28;20201;-74
2022/06/25 02:13:04;;;;;;;8.70;4.87;;;;;;;18.07;100.00;62732.53;5051740;28;20594;-74
2022/06/25 02:15:32;;;;;;;7.30;4.50;;;;;;;17.24;100.00;62648.16;5051282;28;20201;-76
2022/06/25 02:17:59;;;;;;;6.50;5.10;;;;;;;17.93;100.00;62722.06;5051609;28;20240;-75
2022/06/25 02:20:27;;;;;;;6.97;4.20;;;;;;;18.06;100.00;62730.94;5051449;28;20217;-74
2022/06/25 02:22:55;;;;;;;5.87;4.70;;;;;;;17.99;100.00;62723.38;5051412;28;20220;-73
2022/06/25 02:25:22;;;;;;;9.13;4.53;;;;;;;18.00;100.00;62724.44;5051532;28;20670;-73
2022/06/25 02:27:49;;;;;;;6.90;5.00;;;;;;;18.01;100.00;62728.13;5051192;28;20232;-74
2022/06/25 02:30:19;;;;;;;8.13;4.67;;;;;;;18.06;100.00;62730.94;5051063;28;20209;-74
2022/06/25 02:32:46;;;;;;;6.97;4.90;;;;;;;17.93;100.00;62722.06;5051402;28;20203;-75
2022/06/25 02:35:14;;;;;;;8.30;4.77;;;;;;;18.02;100.00;62729.72;5051397;28;20224;-74
2022/06/25 02:37:41;;;;;;;8.07;4.63;;;;;;;18.06;100.00;62730.94;5051392;28;20231;-74
2022/06/25 02:40:10;;;;;;;6.60;4.77;;;;;;;18.05;100.00;62732.44;5051229;28;20594;-74
2022/06/25 02:42:37;;;;;;;6.73;4.87;;;;;;;18.07;100.00;62732.53;5051969;28;20193;-74
2022/06/25 02:45:05;;;;;;;5.50;4.87;;;;;;;17.64;100.00;62681.53;5062354;28;20690;-73
2022/06/25 02:47:34;;;;;;;9.53;5.70;;;;;;;18.22;100.00;62748.19;5071140;28;20207;-74
2022/06/25 02:50:01;;;;;;;5.87;5.23;;;;;;;18.34;100.00;62763.72;5071300;28;20239;-74
2022/06/25 02:52:29;;;;;;;10.40;5.80;;;;;;;18.29;100.00;62758.84;5071054;28;20213;-73
2022/06/25 02:54:56;;;;;;;7.33;5.63;;;;;;;18.30;100.00;62761.97;5053149;28;20212;-73
2022/06/25 03:00:09;;;;;;;9.47;6.00;;;;;;;18.42;100.00;62769.78;5056260;28;20255;-74
2022/06/25 03:02:38;;;;;;;7.27;5.23;;;;;;;18.30;100.00;62761.97;5055027;28;20593;-75
2022/06/25 03:05:06;;;;;;;9.47;5.70;;;;;;;18.31;100.00;62760.50;5055202;28;20196;-72
2022/06/25 03:07:33;;;;;;;6.80;5.63;;;;;;;18.36;100.00;62763.84;5054543;28;20216;-74
2022/06/25 03:10:00;;;;;;;9.57;6.17;;;;;;;18.37;100.00;62764.38;5055279;28;20560;-74
2022/06/25 03:12:27;;;;;;;8.27;5.93;;;;;;;18.51;100.00;62785.22;5054939;28;20201;-75
2022/06/25 03:14:57;;;;;;;9.93;5.60;;;;;;;18.52;100.00;62780.59;5054689;28;20197;-74
2022/06/25 03:17:24;;;;;;;16.00;5.90;;;;;;;18.60;100.00;62788.69;5053496;28;20772;-74
2022/06/25 03:19:53;;;;;;;9.80;5.63;;;;;;;18.54;100.00;62793.06;5054824;28;20197;-74
2022/06/25 03:22:20;;;;;;;12.20;5.80;;;;;;;18.68;100.00;62797.88;5054699;28;20201;-75
2022/06/25 03:24:48;;;;;;;8.23;5.40;;;;;;;18.50;100.00;62778.97;5054678;28;20205;-75
2022/06/25 03:27:15;;;;;;;8.90;5.00;;;;;;;17.95;100.00;62719.59;5054525;28;20229;-74
2022/06/25 03:29:42;;;;;;;7.20;5.43;;;;;;;18.51;100.00;62784.69;5054570;28;20204;-73
2022/06/25 03:32:10;;;;;;;8.00;5.67;;;;;;;18.72;100.00;62804.75;5054663;28;20587;-75
2022/06/25 03:34:37;;;;;;;11.53;4.70;;;;;;;19.02;100.00;62834.03;5054013;28;20211;-74
2022/06/25 03:37:09;;;;;;;7.80;5.20;;;;;;;18.41;100.00;62771.28;5054129;28;20228;-73
2022/06/25 03:39:36;;;;;;;12.93;5.10;;;;;;;19.02;100.00;62834.59;5055012;28;20266;-73
2022/06/25 03:42:03;;;;;;;11.10;5.40;;;;;;;18.93;100.00;62824.31;5054380;28;20664;-73
2022/06/25 03:44:31;;;;;;;6.17;4.97;;;;;;;18.14;100.00;62736.97;5041196;28;20205;-75
2022/06/25 03:46:58;;;;;;;6.87;5.07;;;;;;;19.04;100.00;62836.19;5053982;28;20644;-75
2022/06/25 03:49:24;;;;;;;7.63;4.87;;;;;;;19.11;100.00;62849.47;5053997;28;20215;-76
2022/06/25 03:51:51;;;;;;;6.50;5.03;;;;;;;19.24;100.00;62860.38;5054190;28;20287;-74
2022/06/25 03:54:20;;;;;;;12.87;5.77;;;;;;;19.29;100.00;62863.75;5054395;28;20220;-73
2022/06/25 03:56:47;;;;;;;15.90;5.80;;;;;;;19.45;100.00;62879.97;5053941;28;20288;-75
2022/06/25 03:59:15;;;;;;;8.40;4.87;;;;;;;19.47;100.00;62882.13;5054144;28;20231;-74
2022/06/25 04:01:42;;;;;;;7.80;5.30;;;;;;;19.66;100.00;62902.69;5053894;28;20204;-73
2022/06/25 04:04:09;;;;;;;8.13;5.37;;;;;;;19.42;100.00;62879.31;5053753;28;20586;-74
2022/06/25 04:06:36;;;;;;;6.97;5.80;;;;;;;19.41;100.00;62873.63;5053772;28;20674;-75
2022/06/25 04:09:04;;;;;;;13.37;5.23;;;;;;;19.33;100.00;62868.09;5053778;28;20631;-73
2022/06/25 04:11:33;;;;;;;10.67;5.60;;;;;;;19.44;100.00;62879.44;5053420;28;20197;-74
2022/06/25 04:14:00;;;;;;;8.17;5.33;;;;;;;19.48;100.00;62885.81;5053790;28;20208;-73
2022/06/25 04:16:27;;;;;;;8.90;4.87;;;;;;;19.38;100.00;62877.59;5053629;28;20213;-73
2022/06/25 04:18:55;;;;;;;6.70;5.20;;;;;;;19.35;100.00;62872.28;5053751;28;20240;-73
2022/06/25 04:21:22;;;;;;;6.00;5.40;;;;;;;19.36;100.00;62868.19;5053904;28;20205;-74
2022/06/25 04:23:49;;;;;;;6.93;4.87;;;;;;;19.12;100.00;62850.53;5053584;28;20204;-73
2022/06/25 04:26:17;;;;;;;7.80;5.47;;;;;;;19.54;100.00;62897.47;5053540;28;20247;-75
2022/06/25 04:31:30;;;;;;;11.93;6.83;;;;;;;19.55;100.00;62890.78;5053600;28;20204;-74
2022/06/25 04:33:58;;;;;;;11.93;6.87;;;;;;;19.36;100.00;62873.91;5053673;28;20201;-73
2022/06/25 04:36:26;;;;;;;11.07;7.03;;;;;;;18.88;100.00;62819.47;5053174;28;20205;-74
2022/06/25 04:38:54;;;;;;;12.20;6.73;;;;;;;19.33;100.00;62868.09;5053319;28;20236;-75
2022/06/25 04:41:23;;;;;;;15.50;7.30;;;;;;;19.21;100.00;62857.16;5053228;28;20197;-74
2022/06/25 04:43:53;;;;;;;9.57;6.57;;;;;;;19.16;100.00;62852.28;5055139;28;20208;-74
2022/06/25 04:46:21;;;;;;;10.70;7.20;;;;;;;19.06;100.00;62836.31;5073335;28;20230;-75
2022/06/25 04:48:49;;;;;;;8.33;7.40;;;;;;;18.93;100.00;62826.91;5073173;28;20261;-73
2022/06/25 04:51:16;;;;;;;9.83;7.23;;;;;;;18.94;100.00;62830.56;5038965;28;20225;-74
2022/06/25 04:53:58;;;;;;;10.13;7.20;;;;;;;19.04;100.00;62841.91;5053242;28;20205;-73
2022/06/25 04:56:27;;;;;;;8.33;7.10;;;;;;;19.11;100.00;62844.31;5053376;28;20204;-74
2022/06/25 04:58:56;;;;;;;11.07;7.20;;;;;;;19.05;100.00;62843.00;5053182;28;20255;-73
2022/06/25 05:01:24;;;;;;;10.23;6.93;;;;;;;19.14;100.00;62844.41;5053834;28;20696;-74
2022/06/25 05:03:52;;;;;;;10.50;6.60;;;;;;;18.58;100.00;62786.53;5052860;28;20200;-71
2022/06/25 05:06:19;;;;;;;8.33;7.00;;;;;;;19.23;100.00;62857.28;5052783;28;20212;-75
2022/06/25 05:08:46;;;;;;;8.27;7.17;;;;;;;19.31;100.00;62865.38;5052477;28;20201;-74
2022/06/25 05:11:14;;;;;;;11.03;7.43;;;;;;;18.80;100.00;62810.81;5052667;28;20208;-75
2022/06/25 05:13:41;;;;;;;13.33;7.77;;;;;;;19.40;100.00;62874.59;5052216;28;20250;-75
2022/06/25 05:16:10;;;;;;;8.60;7.63;;;;;;;19.32;100.00;62869.56;5052753;28;20197;-75
2022/06/25 05:18:39;;;;;;;9.73;8.00;;;;;;;19.30;100.00;62864.81;5052456;28;20247;-75
2022/06/25 05:21:06;;;;;;;13.57;7.53;;;;;;;19.23;100.00;62851.56;5052370;28;20193;-73
2022/06/25 05:23:33;;;;;;;10.83;7.70;;;;;;;19.51;100.00;62887.00;5052370;28;20196;-74
2022/06/25 05:25:59;;;;;;;12.23;7.93;;;;;;;18.91;100.00;62824.75;5052685;28;20232;-74
2022/06/25 05:28:26;;;;;;;14.10;7.87;;;;;;;19.59;100.00;62895.66;5052751;28;20211;-74
2022/06/25 05:30:54;;;;;;;11.27;7.47;;;;;;;19.59;100.00;62895.66;5052550;28;20223;-77
2022/06/25 05:33:23;;;;;;;17.63;8.03;;;;;;;19.75;100.00;62914.97;5052396;28;20204;-75
2022/06/25 05:35:50;;;;;;;15.90;8.30;;;;;;;19.93;100.00;62929.81;5052336;28;20224;-75
2022/06/25 05:38:17;;;;;;;11.60;7.80;;;;;;;19.99;100.00;62938.34;5050952;28;20667;-75
2022/06/25 05:40:45;;;;;;;17.13;8.20;;;;;;;20.17;100.00;62957.78;5052032;28;20709;-74
2022/06/25 05:43:12;;;;;;;10.57;7.40;;;;;;;20.15;100.00;62953.03;5052700;28;20204;-74
2022/06/25 05:45:39;;;;;;;12.70;7.93;;;;;;;20.11;100.00;62951.31;5068021;28;20205;-74
2022/06/25 05:48:08;;;;;;;14.93;7.33;;;;;;;20.15;100.00;62960.81;5071992;28;20200;-75
2022/06/25 05:50:36;;;;;;;13.80;8.43;;;;;;;20.23;100.00;62964.31;5071689;28;20220;-75
2022/06/25 05:53:03;;;;;;;15.43;8.17;;;;;;;20.08;100.00;62948.59;5072074;28;20232;-74
2022/06/25 05:55:30;;;;;;;14.20;7.90;;;;;;;20.26;100.00;62967.56;5071996;28;20208;-74
2022/06/25 05:57:59;;;;;;;16.67;8.60;;;;;;;20.28;100.00;62969.16;5071699;28;20223;-75
2022/06/25 06:00:27;;;;;;;19.50;8.63;;;;;;;19.46;100.00;62881.06;5073291;28;20705;-73
2022/06/25 06:02:54;;;;;;;15.07;9.00;;;;;;;20.15;100.00;62955.63;5072010;28;20677;-77
2022/06/25 06:05:22;;;;;;;14.23;9.30;;;;;;;20.88;100.00;63034.63;5072022;28;20212;-77
2022/06/25 06:07:52;;;;;;;14.67;7.90;;;;;;;21.11;100.00;63058.97;5071550;28;20208;-75
2022/06/25 06:10:21;;;;;;;10.27;8.30;;;;;;;21.52;100.00;63102.81;5071807;28;20200;-73
2022/06/25 06:12:48;;;;;;;12.87;8.20;;;;;;;21.70;100.00;63122.28;5071444;28;20203;-76
2022/06/25 06:15:16;;;;;;;21.37;8.63;;;;;;;21.97;100.00;63151.56;5071461;28;20200;-73
2022/06/25 06:17:43;;;;;;;14.77;8.23;;;;;;;22.34;100.00;63189.03;5042544;28;20213;-75
2022/06/25 06:20:10;;;;;;;10.20;6.60;;;;;;;22.40;100.00;63197.56;5051298;28;20201;-74
2022/06/25 06:22:38;;;;;;;11.17;7.27;;;;;;;22.62;100.00;63221.97;5051195;28;20291;-74
2022/06/25 06:25:08;;;;;;;9.27;6.30;;;;;;;22.97;100.00;63258.81;5051751;28;20200;-73
2022/06/25 06:27:36;;;;;;;12.60;6.50;;;;;;;22.77;100.00;63237.16;5051901;28;20241;-73
2022/06/25 06:30:03;;;;;;;11.57;6.77;;;;;;;23.14;100.00;63279.88;5051473;28;20717;-75
2022/06/25 06:32:31;;;;;;;14.53;7.60;;;;;;;23.52;100.00;63318.47;5051037;28;20295;-74
2022/06/25 06:34:59;;;;;;;13.47;7.33;;;;;;;23.50;100.00;63318.91;5051112;28;20211;-75
2022/06/25 06:37:26;;;;;;;13.20;7.30;;;;;;;23.30;100.00;63294.59;5050977;28;20205;-74
2022/06/25 06:39:53;;;;;;;13.67;7.67;;;;;;;23.73;100.00;63341.25;5050882;28;20244;-74
2022/06/25 06:42:22;;;;;;;14.00;7.63;;;;;;;24.24;100.00;63396.59;5050917;28;20213;-74
2022/06/25 06:44:49;;;;;;;12.53;7.53;;;;;;;23.80;100.00;63345.69;5060453;28;20212;-73
2022/06/25 06:47:16;;;;;;;16.20;7.53;;;;;;;23.99;100.00;63366.84;5057090;28;20205;-74
2022/06/25 06:49:44;;;;;;;10.27;7.23;;;;;;;24.08;100.00;63381.84;5041046;28;20209;-74
2022/06/25 06:52:11;;;;;;;14.33;7.30;;;;;;;24.29;100.00;63402.03;5043688;28;20210;-75
2022/06/25 06:54:39;;;;;;;14.60;7.80;;;;;;;24.20;100.00;63397.47;5050933;28;20200;-74
2022/06/25 06:57:06;;;;;;;16.43;7.53;;;;;;;24.15;100.00;63386.84;5051220;28;20215;-74
2022/06/25 06:59:35;;;;;;;14.80;7.37;;;;;;;24.38;100.00;63410.72;5050924;28;20220;-74
2022/06/25 07:02:02;;;;;;;8.60;6.50;;;;;;;24.78;100.00;63454.69;5053854;28;20263;-75
2022/06/25 07:04:29;;;;;;;10.17;7.10;;;;;;;24.92;100.00;63469.34;5051486;28;20602;-75
2022/06/25 07:06:57;;;;;;;13.83;7.90;;;;;;;25.13;100.00;63497.91;5051103;28;20197;-75
2022/06/25 07:09:24;;;;;;;15.70;7.30;;;;;;;25.52;100.00;63531.91;5051060;28;20205;-76
2022/06/25 07:11:52;;;;;;;10.67;7.83;;;;;;;25.57;100.00;63544.63;5050104;28;20198;-74
2022/06/25 07:14:19;;;;;;;45.93;9.97;;;;;;;25.15;100.00;63491.72;5050950;28;20202;-74
2022/06/25 07:16:48;;;;;;;14.20;8.30;;;;;;;26.06;100.00;63597.88;5049531;28;20274;-73
2022/06/25 07:19:16;;;;;;;19.00;6.87;;;;;;;26.12;100.00;63599.19;5050761;28;20254;-74
2022/06/25 07:21:43;;;;;;;18.23;7.37;;;;;;;26.27;100.00;63617.56;5050531;28;20205;-75
2022/06/25 07:24:10;;;;;;;12.77;6.67;;;;;;;25.89;100.00;63574.19;5050938;28;20209;-73
2022/06/25 07:26:37;;;;;;;12.07;6.43;;;;;;;26.17;100.00;63609.31;5050316;28;20240;-73
2022/06/25 07:29:05;;;;;;;13.60;6.50;;;;;;;26.45;100.00;63631.91;5050733;28;20218;-74
2022/06/25 07:31:32;;;;;;;13.70;6.50;;;;;;;26.77;100.00;63669.91;5050441;28;20224;-74
2022/06/25 07:34:03;;;;;;;12.73;5.87;;;;;;;26.10;100.00;63596.50;5050479;28;20209;-74
2022/06/25 07:36:30;;;;;;;9.70;5.90;;;;;;;26.01;100.00;63586.69;5050684;28;20677;-74
2022/06/25 07:38:57;;;;;;;10.47;5.83;;;;;;;25.93;100.00;63581.69;5036909;28;20221;-74
2022/06/25 07:41:26;;;;;;;12.30;5.73;;;;;;;26.35;100.00;63623.66;5050672;28;20201;-74
2022/06/25 07:43:53;;;;;;;12.43;5.73;;;;;;;26.57;100.00;63650.19;5053153;28;20201;-74
2022/06/25 07:46:20;;;;;;;8.50;5.63;;;;;;;26.50;100.00;63645.72;5073429;28;20289;-74
2022/06/25 07:48:47;;;;;;;9.30;5.83;;;;;;;26.44;100.00;63633.44;5074465;28;20208;-74
2022/06/25 07:54:00;;;;;;;9.70;5.17;;;;;;;26.94;100.00;63690.47;5074061;28;20209;-74
2022/06/25 07:56:32;;;;;;;11.30;5.10;;;;;;;27.01;100.00;63695.44;5074106;28;20207;-74
2022/06/25 07:59:00;;;;;;;7.57;4.93;;;;;;;27.34;100.00;63731.38;5072850;28;20224;-75
2022/06/25 08:01:28;;;;;;;8.77;5.17;;;;;;;27.35;100.00;63737.16;5040557;28;20203;-73
2022/06/25 08:03:55;;;;;;;7.37;5.27;;;;;;;27.47;100.00;63750.75;5053994;28;20211;-74
2022/06/25 08:06:24;;;;;;;10.87;5.13;;;;;;;27.45;100.00;63745.94;5053916;28;20566;-74
2022/06/25 08:08:51;;;;;;;7.50;5.00;;;;;;;27.62;100.00;63760.75;5053864;28;20220;-74
2022/06/25 08:11:18;;;;;;;6.10;5.27;;;;;;;28.08;100.00;63810.84;5053550;28;20204;-74
2022/06/25 08:13:46;;;;;;;8.73;5.90;;;;;;;27.59;100.00;63758.56;5053686;28;20208;-74
2022/06/25 08:16:15;;;;;;;15.30;5.50;;;;;;;27.87;100.00;63787.97;5053629;28;20201;-74
2022/06/25 08:18:43;;;;;;;7.87;5.50;;;;;;;28.04;100.00;63806.47;5052341;28;20299;-74
2022/06/25 08:21:10;;;;;;;6.50;5.27;;;;;;;28.39;100.00;63844.59;5053309;28;20212;-75
2022/06/25 08:23:38;;;;;;;8.73;5.20;;;;;;;27.89;100.00;63790.69;5053600;28;20209;-74
2022/06/25 08:26:06;;;;;;;9.03;5.83;;;;;;;28.68;100.00;63876.19;5053756;28;20315;-74
2022/06/25 08:28:33;;;;;;;10.10;5.70;;;;;;;28.46;100.00;63849.59;5053576;28;20220;-73
2022/06/25 08:31:00;;;;;;;12.73;5.83;;;;;;;28.32;100.00;63837.53;5053402;28;20289;-75
2022/06/25 08:33:27;;;;;;;8.80;6.23;;;;;;;28.23;100.00;63827.19;5053507;28;20209;-74
2022/06/25 08:35:54;;;;;;;8.90;6.00;;;;;;;28.18;100.00;63821.72;5053337;28;20224;-74
2022/06/25 08:38:21;;;;;;;10.20;6.60;;;;;;;28.44;100.00;63847.41;5052004;28;20236;-73
2022/06/25 08:40:56;;;;;;;6.80;5.70;;;;;;;28.83;100.00;63889.94;5053304;28;20196;-73
2022/06/25 08:43:24;;;;;;;14.97;6.00;;;;;;;28.83;100.00;63889.94;5054296;28;20220;-75
2022/06/25 08:45:51;;;;;;;13.50;5.43;;;;;;;29.56;100.00;63968.94;5055768;28;20228;-74
2022/06/25 08:48:22;;;;;;;16.40;6.30;;;;;;;29.65;100.00;63980.81;5046557;28;20217;-74
2022/06/25 08:50:51;;;;;;;7.90;5.73;;;;;;;29.42;100.00;63955.75;5053192;28;20593;-73
2022/06/25 08:53:20;;;;;;;8.43;5.53;;;;;;;29.28;100.00;63940.50;5053172;28;20201;-74
2022/06/25 08:55:47;;;;;;;7.83;5.37;;;;;;;29.61;100.00;63976.47;5052967;28;20296;-74
2022/06/25 08:58:16;;;;;;;11.97;5.87;;;;;;;29.74;100.00;63991.19;5053209;28;20205;-75
2022/06/25 09:00:45;;;;;;;13.50;6.50;;;;;;;29.85;100.00;64003.19;5053427;28;20716;-75
2022/06/25 09:03:13;;;;;;;12.17;6.77;;;;;;;29.99;100.00;64015.28;5052649;28;20193;-75
2022/06/25 09:05:42;;;;;;;14.13;6.57;;;;;;;30.24;100.00;64042.00;5052940;28;20585;-74
2022/06/25 09:08:11;;;;;;;12.77;6.80;;;;;;;30.63;100.00;64087.75;5052560;28;20201;-74
2022/06/25 09:10:41;;;;;;;7.43;6.33;;;;;;;30.62;100.00;64086.66;5052781;28;20210;-74
2022/06/25 09:13:11;;;;;;;13.00;6.43;;;;;;;30.08;100.00;64033.00;5052770;28;20198;-75
2022/06/25 09:15:42;;;;;;;10.20;6.47;;;;;;;29.66;100.00;63979.81;5052473;28;20690;-74
2022/06/25 09:18:11;;;;;;;13.10;6.77;;;;;;;30.36;100.00;64053.03;5052649;28;20210;-75
2022/06/25 09:20:55;;;;;;;13.97;6.93;;;;;;;29.90;100.00;64013.38;5052621;28;20227;-77
2022/06/25 09:23:22;;;;;;;12.63;6.93;;;;;;;29.41;100.00;63954.66;5052727;28;20213;-74
2022/06/25 09:26:01;;;;;;;10.63;6.60;;;;;;;30.66;100.00;64088.41;5052084;28;20208;-74
2022/06/25 09:28:36;;;;;;;8.93;6.57;;;;;;;31.20;100.00;64149.41;5052803;28;20205;-74
2022/06/25 09:31:05;;;;;;;9.83;6.30;;;;;;;31.42;100.00;64172.91;5052444;28;20202;-75
2022/06/25 09:33:34;;;;;;;12.13;6.80;;;;;;;31.07;100.00;64134.69;5051908;28;20212;-74
2022/06/25 09:36:02;;;;;;;14.00;8.03;;;;;;;30.86;100.00;64111.75;5052331;28;20204;-74
2022/06/25 09:38:29;;;;;;;17.07;7.17;;;;;;;30.45;100.00;64070.19;5052001;28;20598;-74
2022/06/25 09:40:58;;;;;;;12.70;6.93;;;;;;;31.02;100.00;64124.50;5052115;28;20695;-74
2022/06/25 09:43:26;;;;;;;12.43;7.63;;;;;;;31.24;100.00;64150.59;5049162;28;20683;-77
2022/06/25 09:45:55;;;;;;;14.30;7.40;;;;;;;31.54;100.00;64186.00;5041266;28;20212;-76
2022/06/25 09:48:25;;;;;;;14.80;7.40;;;;;;;31.16;100.00;64144.50;5052166;28;20695;-75
2022/06/25 09:51:06;;;;;;;14.77;8.00;;;;;;;31.34;100.00;64164.16;5052003;28;20226;-75
2022/06/25 09:53:33;;;;;;;15.37;8.87;;;;;;;31.19;100.00;64153.59;5052066;28;20198;-74
2022/06/25 09:56:01;;;;;;;15.50;9.17;;;;;;;31.69;100.00;64202.41;5052138;28;20204;-77
2022/06/25 09:58:31;;;;;;;14.73;8.90;;;;;;;31.72;100.00;64205.09;5051880;28;20209;-77
2022/06/25 10:00:58;;;;;;;14.43;8.50;;;;;;;31.87;100.00;64224.69;5052249;28;20316;-73
2022/06/25 10:03:30;;;;;;;14.13;8.13;;;;;;;32.22;100.00;64262.94;5052018;28;20216;-74
2022/06/25 10:05:58;;;;;;;9.73;7.67;;;;;;;32.01;100.00;64237.34;5052009;28;20205;-74
2022/06/25 10:08:32;;;;;;;13.07;7.57;;;;;;;32.30;100.00;64269.03;5051023;28;20215;-74
2022/06/25 10:11:00;;;;;;;11.50;7.67;;;;;;;32.67;100.00;64303.66;5051940;28;20206;-76
2022/06/25 10:13:27;;;;;;;13.30;8.33;;;;;;;32.50;100.00;64290.34;5051762;28;20209;-74
2022/06/25 10:15:57;;;;;;;13.17;7.50;;;;;;;31.93;100.00;64228.63;5051663;28;20216;-75
2022/06/25 10:18:29;;;;;;;13.20;7.63;;;;;;;32.03;100.00;64239.53;5051601;28;20209;-74
2022/06/25 10:20:57;;;;;;;12.37;7.87;;;;;;;32.42;100.00;64282.13;5051478;28;20738;-74
2022/06/25 10:23:27;;;;;;;17.37;7.33;;;;;;;32.46;100.00;64285.97;5051422;28;20213;-74
2022/06/25 10:25:54;;;;;;;16.83;8.27;;;;;;;32.51;100.00;64290.91;5051608;28;20244;-74
2022/06/25 10:28:27;;;;;;;11.77;6.93;;;;;;;32.76;100.00;64318.75;5051414;28;20205;-75
2022/06/25 10:30:56;;;;;;;16.03;7.20;;;;;;;33.22;100.00;64368.53;5051524;28;20276;-74
2022/06/25 10:33:25;;;;;;;17.17;7.10;;;;;;;33.00;100.00;64345.00;5051417;28;20295;-72
2022/06/25 10:36:01;;;;;;;9.27;6.67;;;;;;;33.07;100.00;64346.84;5051457;28;20205;-75
2022/06/25 10:38:28;;;;;;;10.60;6.60;;;;;;;33.40;100.00;64390.28;5051570;28;20307;-74
2022/06/25 10:40:56;;;;;;;12.53;7.33;;;;;;;33.19;100.00;64368.44;5051227;28;20230;-77
2022/06/25 10:43:45;;;;;;;17.53;7.33;;;;;;;33.29;100.00;64376.16;5051812;28;20241;-75
2022/06/25 10:46:37;;;;;;;13.50;7.63;;;;;;;33.26;100.00;64372.91;5044678;28;20203;-75
2022/06/25 10:49:07;;;;;;;12.03;7.50;;;;;;;33.27;100.00;64368.69;5071205;28;20256;-75
2022/06/25 10:51:43;;;;;;;15.60;7.83;;;;;;;33.52;100.00;64401.34;5071337;28;20280;-75
2022/06/25 10:54:16;;;;;;;14.30;7.43;;;;;;;33.72;100.00;64423.22;5071426;28;20590;-75
2022/06/25 10:56:45;;;;;;;11.77;6.87;;;;;;;33.71;100.00;64427.41;5073707;28;20607;-75
2022/06/25 10:59:46;;;;;;;11.17;6.97;;;;;;;33.86;100.00;64438.53;5070885;28;20210;-74
2022/06/25 11:02:15;;;;;;;13.57;6.83;;;;;;;33.78;100.00;64429.78;5066641;28;20204;-75
2022/06/25 11:04:48;;;;;;;12.97;7.13;;;;;;;33.75;100.00;64426.50;5071000;28;20200;-75
2022/06/25 11:07:22;;;;;;;12.33;7.20;;;;;;;33.14;100.00;64359.78;5072352;28;20200;-75
2022/06/25 11:09:54;;;;;;;11.87;6.70;;;;;;;34.01;100.00;64452.31;5066700;28;20234;-74
2022/06/25 11:12:23;;;;;;;12.40;6.87;;;;;;;34.01;100.00;64454.94;5062728;28;20577;-75
2022/06/25 11:14:57;;;;;;;14.77;7.30;;;;;;;33.69;100.00;64419.94;5071105;28;20324;-74
2022/06/25 11:17:25;;;;;;;15.53;7.80;;;;;;;33.63;100.00;64415.47;5070904;28;20208;-74
2022/06/25 11:19:52;;;;;;;10.83;6.77;;;;;;;34.15;100.00;64469.19;5072396;28;20242;-74
2022/06/25 11:22:25;;;;;;;17.67;7.30;;;;;;;34.28;100.00;64483.41;5074735;28;20219;-77
2022/06/25 11:30:29;;;;;;;13.67;6.63;;;;;;;33.33;100.00;64380.53;5074835;28;20673;-75
2022/06/25 11:32:57;;;;;;;17.60;7.10;;;;;;;33.91;100.00;64446.63;5074677;28;20205;-75
2022/06/25 11:35:37;;;;;;;13.67;7.43;;;;;;;33.79;100.00;64432.97;5051968;28;20287;-75
2022/06/25 11:38:14;;;;;;;16.77;7.57;;;;;;;32.94;100.00;64335.25;5053747;28;20195;-75
2022/06/25 11:40:44;;;;;;;14.43;7.67;;;;;;;32.83;100.00;64323.22;5054437;28;20712;-75
2022/06/25 11:43:14;;;;;;;13.47;7.03;;;;;;;33.69;100.00;64419.94;5055318;28;20608;-75
2022/06/25 11:45:52;;;;;;;11.60;6.97;;;;;;;33.93;100.00;64442.97;5071344;28;20236;-77